createdAt,value
2022-10-11T00:00:19.557Z,94329.13
2022-10-11T00:01:21.062Z,94332.56
2022-10-11T00:02:25.211Z,94334.66
2022-10-11T00:03:27.823Z,94335.97
2022-10-11T00:04:30.636Z,94332.28
2022-10-11T00:05:32.268Z,94326.97
2022-10-11T00:06:33.710Z,94326.41
2022-10-11T00:07:36.970Z,94327.63
2022-10-11T00:08:38.494Z,94325.22
2022-10-11T00:09:39.975Z,94330.69
2022-10-11T00:10:41.545Z,94322.31
2022-10-11T00:11:43.145Z,94329.88
2022-10-11T00:12:44.681Z,94315.41
2022-10-11T00:13:46.166Z,94310.28
2022-10-11T00:14:47.685Z,94312.94
2022-10-11T00:15:49.174Z,94315.78
2022-10-11T00:16:50.769Z,94318.88
2022-10-11T00:17:52.204Z,94309.72
2022-10-11T00:18:53.686Z,94313.31
2022-10-11T00:19:56.568Z,94313.75
2022-10-11T00:21:02.672Z,94318.09
2022-10-11T00:22:04.224Z,94319.28
2022-10-11T00:23:05.670Z,94317.72
2022-10-11T00:24:07.326Z,94320.72
2022-10-11T00:25:10.440Z,94324.78
2022-10-11T00:26:11.938Z,94319.69
2022-10-11T00:27:13.402Z,94324.03
2022-10-11T00:28:14.848Z,94327.88
2022-10-11T00:29:16.456Z,94332.94
2022-10-11T00:30:18.008Z,94339.94
2022-10-11T00:31:19.577Z,94327.88
2022-10-11T00:32:21.037Z,94324.84
2022-10-11T00:33:22.575Z,94327.88
2022-10-11T00:34:24.285Z,94325.03
2022-10-11T00:35:27.104Z,94329.94
2022-10-11T00:36:28.692Z,94319.91
2022-10-11T00:37:30.214Z,94321.34
2022-10-11T00:38:32.063Z,94319.72
2022-10-11T00:39:33.722Z,94321.97
2022-10-11T00:40:35.221Z,94321.00
2022-10-11T00:41:36.736Z,94327.13
2022-10-11T00:42:38.250Z,94327.72
2022-10-11T00:43:40.127Z,94321.28
2022-10-11T00:44:45.788Z,94323.13
2022-10-11T00:46:30.928Z,94322.94
2022-10-11T00:47:32.384Z,94329.66
2022-10-11T00:48:39.999Z,94318.84
2022-10-11T00:49:45.006Z,94318.72
2022-10-11T00:50:48.030Z,94319.88
2022-10-11T00:51:54.190Z,94318.38
2022-10-11T00:52:59.307Z,94314.97
2022-10-11T00:54:02.194Z,94320.50
2022-10-11T00:55:07.835Z,94316.25
2022-10-11T00:56:14.465Z,94327.69
2022-10-11T00:57:18.354Z,94330.97
2022-10-11T00:58:22.552Z,94330.97
2022-10-11T00:59:28.700Z,94325.25
2022-10-11T01:00:30.130Z,94338.50
2022-10-11T01:01:31.693Z,94337.69
2022-10-11T01:02:33.140Z,94329.75
2022-10-11T01:03:35.944Z,94336.25
2022-10-11T01:04:39.125Z,94334.84
2022-10-11T01:05:41.072Z,94340.16
2022-10-11T01:06:43.961Z,94334.03
2022-10-11T01:07:47.238Z,94330.56
2022-10-11T01:08:50.116Z,94332.25
2022-10-11T01:09:51.574Z,94339.16
2022-10-11T01:10:53.387Z,94329.38
2022-10-11T01:11:58.314Z,94334.69
2022-10-11T01:13:08.611Z,94332.47
2022-10-11T01:14:45.882Z,94327.75
2022-10-11T01:15:54.065Z,94331.00
2022-10-11T01:17:01.630Z,94328.16
2022-10-11T01:18:11.211Z,94337.53
2022-10-11T01:19:28.941Z,94331.00
2022-10-11T01:20:51.107Z,94336.72
2022-10-11T01:22:04.446Z,94331.63
2022-10-11T01:23:29.683Z,94328.78
2022-10-11T01:24:51.411Z,94328.59
2022-10-11T01:26:05.027Z,94325.13
2022-10-11T01:27:34.307Z,94332.22
2022-10-11T01:28:47.845Z,94328.97
2022-10-11T01:29:57.234Z,94330.59
2022-10-11T01:31:08.605Z,94331.19
2022-10-11T01:32:14.624Z,94330.34
2022-10-11T01:33:26.235Z,94332.81
2022-10-11T01:34:33.448Z,94332.81
2022-10-11T01:35:41.359Z,94333.38
2022-10-11T01:36:47.210Z,94334.25
2022-10-11T01:37:55.543Z,94332.59
2022-10-11T01:39:02.435Z,94332.19
2022-10-11T01:40:08.681Z,94335.72
2022-10-11T01:41:15.371Z,94334.47
2022-10-11T01:42:19.106Z,94340.81
2022-10-11T01:43:23.634Z,94332.03
2022-10-11T01:44:26.348Z,94344.50
2022-10-11T01:45:28.878Z,94341.03
2022-10-11T01:46:32.859Z,94341.03
2022-10-11T01:47:34.311Z,94339.63
2022-10-11T01:48:47.219Z,94341.22
2022-10-11T01:49:54.041Z,94338.16
2022-10-11T01:50:57.195Z,94334.91
2022-10-11T01:52:03.508Z,94339.38
2022-10-11T01:53:24.391Z,94335.66
2022-10-11T01:55:08.768Z,94339.75
2022-10-11T01:56:25.995Z,94340.88
2022-10-11T01:57:47.634Z,94331.91
2022-10-11T01:58:57.295Z,94336.38
2022-10-11T02:00:06.649Z,94335.91
2022-10-11T02:01:20.696Z,94335.47
2022-10-11T02:02:35.847Z,94333.94
2022-10-11T02:03:46.347Z,94337.50
2022-10-11T02:04:53.633Z,94338.53
2022-10-11T02:06:02.009Z,94340.38
2022-10-11T02:07:10.312Z,94341.41
2022-10-11T02:08:17.510Z,94346.59
2022-10-11T02:09:25.296Z,94338.44
2022-10-11T02:10:32.278Z,94340.91
2022-10-11T02:11:35.906Z,94349.66
2022-10-11T02:12:40.567Z,94339.69
2022-10-11T02:13:47.018Z,94343.75
2022-10-11T02:14:50.682Z,94343.13
2022-10-11T02:15:53.919Z,94341.53
2022-10-11T02:16:59.605Z,94340.91
2022-10-11T02:18:07.299Z,94344.59
2022-10-11T02:19:10.765Z,94338.06
2022-10-11T02:20:16.190Z,94343.09
2022-10-11T02:21:20.532Z,94339.84
2022-10-11T02:22:26.139Z,94348.88
2022-10-11T02:23:32.331Z,94338.34
2022-10-11T02:24:36.071Z,94345.78
2022-10-11T02:25:37.825Z,94343.78
2022-10-11T02:26:42.876Z,94354.38
2022-10-11T02:27:46.994Z,94347.63
2022-10-11T02:28:51.879Z,94340.69
2022-10-11T02:29:55.040Z,94343.16
2022-10-11T02:30:58.154Z,94343.16
2022-10-11T02:32:00.649Z,94341.00
2022-10-11T02:33:08.078Z,94344.13
2022-10-11T02:34:17.352Z,94345.88
2022-10-11T02:35:20.483Z,94340.25
2022-10-11T02:36:26.818Z,94348.34
2022-10-11T02:37:32.803Z,94343.19
2022-10-11T02:38:38.643Z,94344.31
2022-10-11T02:39:44.756Z,94340.84
2022-10-11T02:40:50.486Z,94339.16
2022-10-11T02:41:55.493Z,94345.28
2022-10-11T02:43:02.282Z,94346.44
2022-10-11T02:44:08.810Z,94347.72
2022-10-11T02:45:14.739Z,94347.31
2022-10-11T02:46:17.797Z,94344.63
2022-10-11T02:47:19.336Z,94347.47
2022-10-11T02:48:24.000Z,94347.28
2022-10-11T02:49:29.721Z,94346.19
2022-10-11T02:50:31.532Z,94345.41
2022-10-11T02:51:33.223Z,94349.28
2022-10-11T02:52:34.680Z,94341.72
2022-10-11T02:53:36.129Z,94344.16
2022-10-11T02:54:37.592Z,94343.16
2022-10-11T02:55:39.055Z,94349.09
2022-10-11T02:56:40.496Z,94347.03
2022-10-11T02:57:41.957Z,94355.25
2022-10-11T02:58:43.384Z,94352.16
2022-10-11T02:59:44.947Z,94354.41
2022-10-11T03:00:46.440Z,94359.69
2022-10-11T03:01:47.922Z,94350.31
2022-10-11T03:02:49.462Z,94353.59
2022-10-11T03:03:52.253Z,94355.88
2022-10-11T03:04:53.694Z,94361.09
2022-10-11T03:05:58.431Z,94359.00
2022-10-11T03:06:59.876Z,94360.97
2022-10-11T03:08:01.346Z,94358.69
2022-10-11T03:09:03.096Z,94364.78
2022-10-11T03:10:06.114Z,94366.63
2022-10-11T03:11:07.621Z,94369.56
2022-10-11T03:12:09.221Z,94363.44
2022-10-11T03:13:12.873Z,94368.78
2022-10-11T03:14:17.525Z,94361.78
2022-10-11T03:15:19.030Z,94369.34
2022-10-11T03:16:20.520Z,94365.66
2022-10-11T03:17:36.200Z,94359.53
2022-10-11T03:18:38.248Z,94363.41
2022-10-11T03:19:41.030Z,94366.09
2022-10-11T03:20:42.490Z,94361.72
2022-10-11T03:21:43.942Z,94364.06
2022-10-11T03:22:45.352Z,94365.53
2022-10-11T03:23:46.799Z,94363.53
2022-10-11T03:24:48.263Z,94360.44
2022-10-11T03:25:49.671Z,94362.03
2022-10-11T03:26:51.343Z,94365.06
2022-10-11T03:27:52.743Z,94369.91
2022-10-11T03:28:54.340Z,94359.13
2022-10-11T03:29:55.814Z,94367.16
2022-10-11T03:30:57.365Z,94367.47
2022-10-11T03:31:58.834Z,94367.28
2022-10-11T03:33:00.249Z,94369.41
2022-10-11T03:34:01.756Z,94372.28
2022-10-11T03:35:05.699Z,94373.09
2022-10-11T03:36:08.013Z,94373.72
2022-10-11T03:37:09.688Z,94366.75
2022-10-11T03:38:13.100Z,94376.47
2022-10-11T03:39:14.676Z,94368.38
2022-10-11T03:40:16.109Z,94375.75
2022-10-11T03:41:17.617Z,94378.00
2022-10-11T03:42:19.301Z,94374.19
2022-10-11T03:43:20.750Z,94377.59
2022-10-11T03:44:22.234Z,94377.66
2022-10-11T03:45:23.774Z,94375.25
2022-10-11T03:46:25.231Z,94369.94
2022-10-11T03:47:26.689Z,94371.78
2022-10-11T03:48:28.131Z,94372.41
2022-10-11T03:49:29.593Z,94375.13
2022-10-11T03:50:32.377Z,94372.66
2022-10-11T03:51:33.803Z,94377.94
2022-10-11T03:52:35.502Z,94376.75
2022-10-11T03:53:36.937Z,94377.16
2022-10-11T03:54:38.440Z,94373.31
2022-10-11T03:55:40.832Z,94366.78
2022-10-11T03:56:42.248Z,94368.06
2022-10-11T03:57:43.713Z,94373.34
2022-10-11T03:58:45.171Z,94367.97
2022-10-11T03:59:46.763Z,94375.09
2022-10-11T04:00:48.326Z,94373.88
2022-10-11T04:01:49.849Z,94372.84
2022-10-11T04:02:51.295Z,94377.53
2022-10-11T04:03:55.524Z,94376.53
2022-10-11T04:04:57.001Z,94379.56
2022-10-11T04:05:59.975Z,94376.78
2022-10-11T04:07:01.467Z,94386.19
2022-10-11T04:08:02.932Z,94383.69
2022-10-11T04:09:04.397Z,94378.06
2022-10-11T04:10:07.119Z,94384.50
2022-10-11T04:11:08.554Z,94380.03
2022-10-11T04:12:10.036Z,94371.78
2022-10-11T04:13:12.095Z,94383.88
2022-10-11T04:14:13.599Z,94372.06
2022-10-11T04:15:15.069Z,94380.84
2022-10-11T04:16:16.553Z,94376.50
2022-10-11T04:17:17.987Z,94381.63
2022-10-11T04:18:19.404Z,94379.41
2022-10-11T04:19:20.841Z,94373.69
2022-10-11T04:20:22.335Z,94375.69
2022-10-11T04:21:25.129Z,94382.63
2022-10-11T04:22:26.611Z,94384.88
2022-10-11T04:23:29.828Z,94383.47
2022-10-11T04:24:31.373Z,94380.38
2022-10-11T04:25:32.862Z,94378.75
2022-10-11T04:26:34.662Z,94377.53
2022-10-11T04:27:36.249Z,94374.84
2022-10-11T04:28:37.734Z,94375.84
2022-10-11T04:29:39.435Z,94379.31
2022-10-11T04:30:40.882Z,94381.19
2022-10-11T04:31:42.358Z,94378.50
2022-10-11T04:32:44.051Z,94378.94
2022-10-11T04:33:45.500Z,94383.00
2022-10-11T04:34:47.068Z,94382.03
2022-10-11T04:35:48.515Z,94383.47
2022-10-11T04:36:51.318Z,94386.25
2022-10-11T04:37:52.734Z,94383.00
2022-10-11T04:38:54.149Z,94383.34
2022-10-11T04:39:55.607Z,94380.94
2022-10-11T04:41:06.436Z,94376.66
2022-10-11T04:42:07.881Z,94378.31
2022-10-11T04:43:09.350Z,94382.41
2022-10-11T04:44:10.790Z,94384.00
2022-10-11T04:45:12.211Z,94380.13
2022-10-11T04:46:13.651Z,94386.88
2022-10-11T04:47:15.085Z,94380.72
2022-10-11T04:48:16.515Z,94386.69
2022-10-11T04:49:17.969Z,94390.13
2022-10-11T04:50:19.449Z,94392.22
2022-10-11T04:51:21.444Z,94390.56
2022-10-11T04:52:25.932Z,94392.22
2022-10-11T04:53:27.765Z,94389.38
2022-10-11T04:54:29.219Z,94398.38
2022-10-11T04:55:30.664Z,94392.28
2022-10-11T04:56:32.123Z,94403.06
2022-10-11T04:57:33.565Z,94391.47
2022-10-11T04:58:35.327Z,94398.78
2022-10-11T04:59:36.824Z,94409.63
2022-10-11T05:00:38.237Z,94404.47
2022-10-11T05:01:39.721Z,94410.81
2022-10-11T05:02:41.253Z,94410.19
2022-10-11T05:03:42.657Z,94412.66
2022-10-11T05:04:44.222Z,94409.16
2022-10-11T05:05:45.735Z,94405.47
2022-10-11T05:06:47.188Z,94410.78
2022-10-11T05:07:50.004Z,94409.38
2022-10-11T05:08:51.470Z,94410.59
2022-10-11T05:09:52.960Z,94405.09
2022-10-11T05:10:55.630Z,94405.31
2022-10-11T05:11:57.096Z,94407.38
2022-10-11T05:12:58.522Z,94410.22
2022-10-11T05:14:00.049Z,94410.31
2022-10-11T05:15:01.894Z,94415.31
2022-10-11T05:16:08.252Z,94417.50
2022-10-11T05:17:12.041Z,94417.22
2022-10-11T05:18:13.477Z,94412.88
2022-10-11T05:19:14.966Z,94409.78
2022-10-11T05:20:16.627Z,94415.75
2022-10-11T05:21:20.355Z,94416.53
2022-10-11T05:22:21.765Z,94419.31
2022-10-11T05:23:24.739Z,94413.34
2022-10-11T05:24:26.261Z,94412.03
2022-10-11T05:25:27.747Z,94421.06
2022-10-11T05:26:29.190Z,94423.72
2022-10-11T05:27:30.619Z,94418.53
2022-10-11T05:28:32.649Z,94425.56
2022-10-11T05:29:34.182Z,94422.22
2022-10-11T05:30:35.621Z,94422.31
2022-10-11T05:31:37.127Z,94420.16
2022-10-11T05:32:38.553Z,94418.09
2022-10-11T05:33:40.236Z,94424.31
2022-10-11T05:34:41.689Z,94420.81
2022-10-11T05:35:43.195Z,94420.88
2022-10-11T05:36:44.630Z,94426.84
2022-10-11T05:37:46.168Z,94428.91
2022-10-11T05:38:48.992Z,94432.22
2022-10-11T05:39:50.470Z,94429.75
2022-10-11T05:40:51.998Z,94432.91
2022-10-11T05:41:53.533Z,94433.13
2022-10-11T05:42:54.977Z,94436.59
2022-10-11T05:43:56.400Z,94432.69
2022-10-11T05:44:57.839Z,94434.53
2022-10-11T05:45:59.353Z,94440.19
2022-10-11T05:47:00.764Z,94432.06
2022-10-11T05:48:02.339Z,94433.78
2022-10-11T05:49:03.834Z,94444.91
2022-10-11T05:50:06.119Z,94440.63
2022-10-11T05:51:08.721Z,94448.50
2022-10-11T05:52:10.187Z,94451.47
2022-10-11T05:53:11.616Z,94456.34
2022-10-11T05:54:14.400Z,94448.75
2022-10-11T05:55:15.939Z,94446.56
2022-10-11T05:56:19.667Z,94450.84
2022-10-11T05:57:21.191Z,94452.31
2022-10-11T05:58:22.836Z,94462.81
2022-10-11T05:59:24.335Z,94455.69
2022-10-11T06:00:25.807Z,94462.72
2022-10-11T06:01:27.853Z,94459.97
2022-10-11T06:02:29.350Z,94467.91
2022-10-11T06:03:30.802Z,94460.81
2022-10-11T06:04:36.284Z,94464.25
2022-10-11T06:05:38.495Z,94464.25
2022-10-11T06:06:39.906Z,94464.44
2022-10-11T06:07:41.523Z,94466.91
2022-10-11T06:08:43.939Z,94468.75
2022-10-11T06:09:46.758Z,94466.00
2022-10-11T06:10:48.198Z,94473.56
2022-10-11T06:11:49.709Z,94465.06
2022-10-11T06:12:51.177Z,94466.06
2022-10-11T06:13:54.099Z,94464.88
2022-10-11T06:14:55.559Z,94475.47
2022-10-11T06:15:56.991Z,94463.06
2022-10-11T06:16:58.436Z,94466.34
2022-10-11T06:18:00.325Z,94466.97
2022-10-11T06:19:01.776Z,94467.59
2022-10-11T06:20:04.261Z,94470.69
2022-10-11T06:21:06.260Z,94473.78
2022-10-11T06:22:10.873Z,94468.56
2022-10-11T06:23:12.410Z,94475.50
2022-10-11T06:24:14.443Z,94473.53
2022-10-11T06:25:17.510Z,94474.56
2022-10-11T06:26:19.252Z,94477.84
2022-10-11T06:27:20.814Z,94471.53
2022-10-11T06:28:22.317Z,94478.84
2022-10-11T06:29:23.783Z,94478.47
2022-10-11T06:30:25.213Z,94478.09
2022-10-11T06:31:26.704Z,94475.44
2022-10-11T06:32:28.861Z,94472.84
2022-10-11T06:33:30.533Z,94474.44
2022-10-11T06:34:31.985Z,94478.09
2022-10-11T06:35:33.414Z,94483.59
2022-10-11T06:36:34.844Z,94470.34
2022-10-11T06:37:36.320Z,94473.00
2022-10-11T06:38:42.304Z,94478.59
2022-10-11T06:39:46.116Z,94482.34
2022-10-11T06:40:48.904Z,94489.31
2022-10-11T06:41:50.351Z,94480.81
2022-10-11T06:42:51.797Z,94482.06
2022-10-11T06:43:53.313Z,94484.34
2022-10-11T06:44:54.808Z,94479.41
2022-10-11T06:45:59.348Z,94486.53
2022-10-11T06:47:00.874Z,94485.72
2022-10-11T06:48:02.339Z,94489.81
2022-10-11T06:49:03.873Z,94488.97
2022-10-11T06:50:05.680Z,94487.03
2022-10-11T06:51:07.250Z,94493.28
2022-10-11T06:52:09.272Z,94489.91
2022-10-11T06:53:11.114Z,94487.63
2022-10-11T06:54:12.656Z,94492.78
2022-10-11T06:55:14.317Z,94491.69
2022-10-11T06:56:17.887Z,94496.56
2022-10-11T06:57:19.737Z,94495.19
2022-10-11T06:58:21.251Z,94502.72
2022-10-11T06:59:22.707Z,94503.41
2022-10-11T07:00:24.112Z,94499.47
2022-10-11T07:01:26.298Z,94502.28
2022-10-11T07:02:27.927Z,94502.66
2022-10-11T07:03:30.060Z,94501.69
2022-10-11T07:04:31.610Z,94506.78
2022-10-11T07:05:33.270Z,94500.78
2022-10-11T07:06:37.881Z,94505.91
2022-10-11T07:07:39.340Z,94505.47
2022-10-11T07:08:40.876Z,94506.28
2022-10-11T07:09:42.340Z,94503.00
2022-10-11T07:10:43.809Z,94506.41
2022-10-11T07:11:46.632Z,94504.16
2022-10-11T07:12:48.061Z,94507.91
2022-10-11T07:13:51.121Z,94509.25
2022-10-11T07:14:52.537Z,94511.28
2022-10-11T07:15:54.285Z,94507.94
2022-10-11T07:16:55.736Z,94517.00
2022-10-11T07:17:57.206Z,94514.59
2022-10-11T07:19:01.082Z,94509.38
2022-10-11T07:20:02.841Z,94522.69
2022-10-11T07:21:06.217Z,94514.75
2022-10-11T07:22:07.755Z,94509.69
2022-10-11T07:23:09.237Z,94514.66
2022-10-11T07:24:10.666Z,94515.34
2022-10-11T07:25:12.200Z,94514.53
2022-10-11T07:26:13.922Z,94508.41
2022-10-11T07:27:16.778Z,94509.19
2022-10-11T07:28:18.221Z,94516.94
2022-10-11T07:29:19.736Z,94512.31
2022-10-11T07:30:21.142Z,94511.06
2022-10-11T07:31:25.904Z,94517.63
2022-10-11T07:32:27.412Z,94519.56
2022-10-11T07:33:28.848Z,94513.50
2022-10-11T07:34:30.306Z,94519.63
2022-10-11T07:35:34.702Z,94521.47
2022-10-11T07:36:36.481Z,94516.16
2022-10-11T07:37:37.903Z,94525.72
2022-10-11T07:38:40.256Z,94519.16
2022-10-11T07:39:41.706Z,94522.00
2022-10-11T07:40:44.965Z,94517.66
2022-10-11T07:41:46.393Z,94518.63
2022-10-11T07:42:49.116Z,94518.44
2022-10-11T07:43:50.565Z,94511.78
2022-10-11T07:44:52.033Z,94518.50
2022-10-11T07:45:53.751Z,94516.50
2022-10-11T07:46:55.181Z,94517.63
2022-10-11T07:47:57.141Z,94517.94
2022-10-11T07:48:58.747Z,94525.94
2022-10-11T07:50:00.236Z,94519.78
2022-10-11T07:51:03.148Z,94527.16
2022-10-11T07:52:05.064Z,94528.22
2022-10-11T07:53:06.845Z,94532.38
2022-10-11T07:54:08.485Z,94527.25
2022-10-11T07:55:09.904Z,94525.78
2022-10-11T07:56:13.426Z,94534.09
2022-10-11T07:57:14.933Z,94524.44
2022-10-11T07:58:17.745Z,94533.06
2022-10-11T07:59:19.470Z,94531.88
2022-10-11T08:00:21.022Z,94527.28
2022-10-11T08:01:23.187Z,94531.75
2022-10-11T08:02:24.675Z,94535.63
2022-10-11T08:03:26.219Z,94528.09
2022-10-11T08:04:27.659Z,94527.34
2022-10-11T08:05:29.165Z,94528.81
2022-10-11T08:06:30.972Z,94535.03
2022-10-11T08:07:32.482Z,94538.59
2022-10-11T08:08:34.087Z,94524.31
2022-10-11T08:09:35.575Z,94541.34
2022-10-11T08:10:37.601Z,94532.97
2022-10-11T08:11:39.553Z,94537.69
2022-10-11T08:12:40.997Z,94538.44
2022-10-11T08:13:43.792Z,94536.88
2022-10-11T08:14:45.244Z,94539.31
2022-10-11T08:15:46.684Z,94541.63
2022-10-11T08:16:48.386Z,94540.81
2022-10-11T08:17:49.900Z,94538.31
2022-10-11T08:18:51.391Z,94543.31
2022-10-11T08:19:52.912Z,94547.91
2022-10-11T08:20:54.534Z,94545.00
2022-10-11T08:21:56.007Z,94542.22
2022-10-11T08:22:57.417Z,94546.50
2022-10-11T08:23:58.919Z,94542.22
2022-10-11T08:25:00.328Z,94544.88
2022-10-11T08:26:01.965Z,94544.28
2022-10-11T08:27:03.760Z,94545.91
2022-10-11T08:28:05.266Z,94544.88
2022-10-11T08:29:08.106Z,94550.06
2022-10-11T08:30:11.205Z,94548.72
2022-10-11T08:31:14.317Z,94543.38
2022-10-11T08:32:15.831Z,94548.72
2022-10-11T08:33:18.281Z,94547.03
2022-10-11T08:34:19.695Z,94551.75
2022-10-11T08:35:21.113Z,94551.81
2022-10-11T08:36:22.597Z,94550.94
2022-10-11T08:37:24.144Z,94543.47
2022-10-11T08:38:25.653Z,94548.13
2022-10-11T08:39:27.113Z,94556.50
2022-10-11T08:40:32.808Z,94556.19
2022-10-11T08:41:40.719Z,94548.72
2022-10-11T08:42:47.642Z,94551.38
2022-10-11T08:44:08.803Z,94549.84
2022-10-11T08:45:24.395Z,94549.03
2022-10-11T08:46:29.553Z,94549.03
2022-10-11T08:47:36.301Z,94548.06
2022-10-11T08:48:41.692Z,94550.78
2022-10-11T08:49:44.301Z,94549.53
2022-10-11T08:50:49.509Z,94545.91
2022-10-11T08:51:55.570Z,94539.44
2022-10-11T08:53:02.519Z,94544.22
2022-10-11T08:54:11.560Z,94540.25
2022-10-11T08:55:21.050Z,94550.34
2022-10-11T08:56:23.413Z,94539.59
2022-10-11T08:57:27.321Z,94541.66
2022-10-11T08:58:37.955Z,94546.09
2022-10-11T08:59:44.659Z,94544.06
2022-10-11T09:00:50.124Z,94551.63
2022-10-11T09:01:58.687Z,94548.06
2022-10-11T09:03:09.274Z,94538.97
2022-10-11T09:04:14.348Z,94548.78
2022-10-11T09:05:18.089Z,94542.91
2022-10-11T09:06:43.241Z,94541.84
2022-10-11T09:07:57.456Z,94536.25
2022-10-11T09:09:12.771Z,94546.91
2022-10-11T09:10:35.764Z,94543.91
2022-10-11T09:11:48.892Z,94539.28
2022-10-11T09:13:00.948Z,94537.84
2022-10-11T09:14:12.252Z,94542.56
2022-10-11T09:15:29.672Z,94545.75
2022-10-11T09:16:43.907Z,94532.50
2022-10-11T09:18:26.071Z,94541.19
2022-10-11T09:19:44.986Z,94537.69
2022-10-11T09:20:52.799Z,94533.91
2022-10-11T09:22:05.768Z,94533.94
2022-10-11T09:23:20.473Z,94531.00
2022-10-11T09:24:40.734Z,94536.22
2022-10-11T09:25:48.939Z,94532.22
2022-10-11T09:26:55.549Z,94534.94
2022-10-11T09:28:10.285Z,94531.44
2022-10-11T09:29:17.524Z,94528.97
2022-10-11T09:30:20.441Z,94528.56
2022-10-11T09:31:22.418Z,94528.78
2022-10-11T09:32:30.248Z,94531.03
2022-10-11T09:33:34.135Z,94526.50
2022-10-11T09:34:37.895Z,94528.56
2022-10-11T09:35:45.109Z,94524.47
2022-10-11T09:36:53.501Z,94531.59
2022-10-11T09:38:01.892Z,94527.13
2022-10-11T09:39:09.937Z,94531.31
2022-10-11T09:40:27.226Z,94528.78
2022-10-11T09:41:35.348Z,94536.19
2022-10-11T09:42:36.877Z,94527.94
2022-10-11T09:43:38.622Z,94530.91
2022-10-11T09:44:45.174Z,94534.88
2022-10-11T09:45:49.487Z,94536.09
2022-10-11T09:46:53.884Z,94531.75
2022-10-11T09:48:00.200Z,94537.84
2022-10-11T09:49:04.026Z,94539.56
2022-10-11T09:50:14.031Z,94538.25
2022-10-11T09:51:20.546Z,94542.47
2022-10-11T09:52:23.512Z,94538.34
2022-10-11T09:53:50.141Z,94545.66
2022-10-11T09:54:54.864Z,94547.34
2022-10-11T09:56:04.445Z,94538.94
2022-10-11T09:57:06.702Z,94536.13
2022-10-11T09:58:27.167Z,94541.59
2022-10-11T09:59:30.371Z,94542.78
2022-10-11T10:00:33.131Z,94538.63
2022-10-11T10:01:35.209Z,94546.28
2022-10-11T10:02:41.172Z,94538.19
2022-10-11T10:03:44.585Z,94539.47
2022-10-11T10:04:57.605Z,94539.19
2022-10-11T10:06:09.039Z,94548.09
2022-10-11T10:07:11.782Z,94553.44
2022-10-11T10:08:24.101Z,94543.81
2022-10-11T10:09:27.709Z,94550.66
2022-10-11T10:10:33.471Z,94545.56
2022-10-11T10:11:36.951Z,94548.00
2022-10-11T10:12:38.478Z,94548.31
2022-10-11T10:13:45.318Z,94544.84
2022-10-11T10:14:55.721Z,94548.94
2022-10-11T10:15:58.329Z,94548.38
2022-10-11T10:17:03.440Z,94540.78
2022-10-11T10:18:05.869Z,94548.78
2022-10-11T10:19:19.194Z,94538.09
2022-10-11T10:20:22.592Z,94541.44
2022-10-11T10:21:28.787Z,94546.50
2022-10-11T10:22:33.787Z,94544.88
2022-10-11T10:23:36.910Z,94545.28
2022-10-11T10:24:40.979Z,94543.28
2022-10-11T10:25:45.842Z,94541.69
2022-10-11T10:27:05.987Z,94546.22
2022-10-11T10:28:18.911Z,94539.47
2022-10-11T10:29:20.398Z,94533.16
2022-10-11T10:30:22.008Z,94540.66
2022-10-11T10:31:25.580Z,94536.06
2022-10-11T10:32:30.880Z,94536.41
2022-10-11T10:33:34.128Z,94540.19
2022-10-11T10:34:41.268Z,94543.25
2022-10-11T10:35:49.149Z,94538.34
2022-10-11T10:36:55.265Z,94540.16
2022-10-11T10:38:05.437Z,94539.53
2022-10-11T10:39:20.346Z,94542.59
2022-10-11T10:40:25.468Z,94543.09
2022-10-11T10:41:27.118Z,94549.44
2022-10-11T10:42:28.727Z,94543.91
2022-10-11T10:43:34.158Z,94543.50
2022-10-11T10:44:35.631Z,94546.78
2022-10-11T10:45:52.606Z,94538.00
2022-10-11T10:47:04.539Z,94536.31
2022-10-11T10:48:17.769Z,94539.81
2022-10-11T10:49:52.493Z,94533.47
2022-10-11T10:50:55.540Z,94540.59
2022-10-11T10:52:06.697Z,94536.34
2022-10-11T10:53:20.820Z,94534.72
2022-10-11T10:54:35.513Z,94539.41
2022-10-11T10:55:40.049Z,94537.75
2022-10-11T10:56:46.507Z,94537.78
2022-10-11T10:58:01.776Z,94526.50
2022-10-11T10:59:18.217Z,94533.28
2022-10-11T11:00:22.138Z,94526.72
2022-10-11T11:01:27.152Z,94524.19
2022-10-11T11:02:40.802Z,94530.06
2022-10-11T11:03:49.375Z,94525.63
2022-10-11T11:06:11.807Z,94527.28
2022-10-11T11:07:24.339Z,94535.94
2022-10-11T11:08:37.722Z,94521.81
2022-10-11T11:09:48.970Z,94526.00
2022-10-11T11:10:58.862Z,94524.09
2022-10-11T11:12:13.812Z,94524.69
2022-10-11T11:13:23.731Z,94524.06
2022-10-11T11:14:39.990Z,94525.38
2022-10-11T11:15:47.999Z,94516.72
2022-10-11T11:16:59.992Z,94523.38
2022-10-11T11:18:17.776Z,94518.28
2022-10-11T11:19:30.091Z,94519.97
2022-10-11T11:20:49.302Z,94528.56
2022-10-11T11:21:59.523Z,94515.84
2022-10-11T11:23:08.581Z,94516.25
2022-10-11T11:24:18.323Z,94529.31
2022-10-11T11:25:30.162Z,94515.38
2022-10-11T11:26:43.439Z,94519.84
2022-10-11T11:27:56.963Z,94507.47
2022-10-11T11:29:19.837Z,94512.16
2022-10-11T11:30:23.624Z,94513.81
2022-10-11T11:31:49.292Z,94513.78
2022-10-11T11:33:06.217Z,94512.56
2022-10-11T11:34:18.405Z,94512.47
2022-10-11T11:35:27.674Z,94500.16
2022-10-11T11:36:38.277Z,94506.50
2022-10-11T11:37:45.268Z,94505.72
2022-10-11T11:38:51.126Z,94502.09
2022-10-11T11:39:55.984Z,94505.00
2022-10-11T11:40:59.600Z,94495.63
2022-10-11T11:42:05.223Z,94503.38
2022-10-11T11:43:14.561Z,94498.25
2022-10-11T11:44:25.123Z,94497.03
2022-10-11T11:45:35.994Z,94494.63
2022-10-11T11:46:43.461Z,94494.22
2022-10-11T11:47:50.523Z,94496.84
2022-10-11T11:48:55.781Z,94501.94
2022-10-11T11:50:00.016Z,94507.81
2022-10-11T11:51:07.525Z,94504.53
2022-10-11T11:52:16.430Z,94502.97
2022-10-11T11:53:24.237Z,94505.63
2022-10-11T11:54:36.224Z,94505.16
2022-10-11T11:55:47.614Z,94506.03
2022-10-11T11:56:54.227Z,94508.69
2022-10-11T11:58:08.543Z,94499.91
2022-10-11T11:59:16.949Z,94508.66
2022-10-11T12:00:20.877Z,94504.34
2022-10-11T12:01:31.092Z,94507.81
2022-10-11T12:02:43.612Z,94504.75
2022-10-11T12:03:49.163Z,94503.53
2022-10-11T12:04:51.708Z,94508.59
2022-10-11T12:06:20.246Z,94508.06
2022-10-11T12:07:24.575Z,94502.66
2022-10-11T12:08:37.677Z,94509.81
2022-10-11T12:09:41.296Z,94511.34
2022-10-11T12:10:55.663Z,94512.09
2022-10-11T12:11:59.756Z,94510.31
2022-10-11T12:13:15.179Z,94513.38
2022-10-11T12:14:24.629Z,94506.59
2022-10-11T12:15:26.929Z,94509.72
2022-10-11T12:16:28.489Z,94508.00
2022-10-11T12:17:30.082Z,94509.66
2022-10-11T12:18:33.535Z,94506.03
2022-10-11T12:19:36.123Z,94502.38
2022-10-11T12:20:38.591Z,94505.22
2022-10-11T12:21:44.227Z,94506.69
2022-10-11T12:22:55.045Z,94502.19
2022-10-11T12:23:59.887Z,94510.94
2022-10-11T12:25:31.893Z,94503.59
2022-10-11T12:26:39.107Z,94508.50
2022-10-11T12:27:42.771Z,94504.84
2022-10-11T12:29:02.595Z,94503.19
2022-10-11T12:30:05.084Z,94496.88
2022-10-11T12:31:19.109Z,94501.16
2022-10-11T12:32:48.688Z,94504.22
2022-10-11T12:34:16.465Z,94498.00
2022-10-11T12:35:39.566Z,94496.63
2022-10-11T12:36:42.246Z,94493.13
2022-10-11T12:37:51.224Z,94499.84
2022-10-11T12:39:26.133Z,94495.84
2022-10-11T12:40:37.422Z,94493.38
2022-10-11T12:41:49.562Z,94494.81
2022-10-11T12:43:09.972Z,94490.13
2022-10-11T12:44:22.156Z,94496.25
2022-10-11T12:45:29.858Z,94495.00
2022-10-11T12:46:57.304Z,94494.34